createdAt,value
2018-10-19T00:02:24.983Z,35.80
2018-10-19T00:04:53.320Z,35.90
2018-10-19T00:07:22.673Z,36.47
2018-10-19T00:09:51.033Z,36.13
2018-10-19T00:12:19.404Z,32.63
2018-10-19T00:14:47.728Z,36.87
2018-10-19T00:17:16.141Z,37.30
2018-10-19T00:19:44.388Z,36.20
2018-10-19T00:22:22.549Z,42.10
2018-10-19T00:24:50.843Z,40.07
2018-10-19T00:27:19.204Z,40.93
2018-10-19T00:29:47.508Z,43.30
2018-10-19T00:32:15.851Z,42.50
2018-10-19T00:34:44.204Z,42.13
2018-10-19T00:37:12.520Z,46.23
2018-10-19T00:39:43.972Z,45.27
2018-10-19T00:42:12.298Z,44.63
2018-10-19T00:44:40.623Z,37.47
2018-10-19T00:47:09.029Z,40.80
2018-10-19T00:49:37.370Z,43.87
2018-10-19T00:52:06.083Z,43.33
2018-10-19T00:54:34.541Z,44.83
2018-10-19T00:57:02.865Z,45.23
2018-10-19T00:59:31.390Z,44.67
2018-10-19T01:01:59.734Z,42.80
2018-10-19T01:04:28.034Z,46.73
2018-10-19T01:06:56.319Z,44.60
2018-10-19T01:09:24.590Z,48.53
2018-10-19T01:11:52.880Z,47.70
2018-10-19T01:14:21.261Z,44.87
2018-10-19T01:16:49.565Z,40.20
2018-10-19T01:19:17.926Z,40.80
2018-10-19T01:21:46.250Z,40.40
2018-10-19T01:24:14.600Z,40.37
2018-10-19T01:26:42.958Z,37.80
2018-10-19T01:29:11.312Z,38.07
2018-10-19T01:31:40.522Z,41.93
2018-10-19T01:34:08.885Z,42.37
2018-10-19T01:36:41.946Z,48.33
2018-10-19T01:39:11.182Z,44.13
2018-10-19T01:41:39.650Z,45.27
2018-10-19T01:44:11.985Z,45.77
2018-10-19T01:46:45.679Z,44.70
2018-10-19T01:49:14.026Z,45.00
2018-10-19T01:51:42.570Z,47.60
2018-10-19T01:54:10.910Z,47.90
2018-10-19T01:56:39.252Z,44.40
2018-10-19T01:59:07.689Z,42.00
2018-10-19T02:01:36.046Z,43.80
2018-10-19T02:04:04.442Z,44.37
2018-10-19T02:06:40.847Z,44.60
2018-10-19T02:09:09.216Z,42.33
2018-10-19T02:11:37.433Z,44.20
2018-10-19T02:14:05.822Z,43.50
2018-10-19T02:16:34.239Z,45.97
2018-10-19T02:19:02.568Z,43.80
2018-10-19T02:21:34.626Z,46.30
2018-10-19T02:24:02.977Z,46.50
2018-10-19T02:26:31.246Z,44.47
2018-10-19T02:28:59.547Z,43.13
2018-10-19T02:31:27.892Z,44.77
2018-10-19T02:33:56.175Z,42.47
2018-10-19T02:36:24.476Z,42.73
2018-10-19T02:38:52.764Z,45.90
2018-10-19T02:41:21.091Z,45.13
2018-10-19T02:43:49.390Z,46.40
2018-10-19T02:46:17.706Z,49.27
2018-10-19T02:48:46.050Z,47.73
2018-10-19T02:51:14.423Z,46.03
2018-10-19T02:53:42.640Z,47.10
2018-10-19T02:56:11.001Z,46.23
2018-10-19T02:58:39.286Z,47.40
2018-10-19T03:01:07.573Z,47.40
2018-10-19T03:03:35.859Z,47.13
2018-10-19T03:06:04.199Z,48.40
2018-10-19T03:08:32.524Z,50.63
2018-10-19T03:11:00.942Z,49.90
2018-10-19T03:13:29.218Z,52.90
2018-10-19T03:15:57.587Z,53.73
2018-10-19T03:18:25.901Z,53.70
2018-10-19T03:20:54.393Z,51.13
2018-10-19T03:23:22.685Z,50.90
2018-10-19T03:25:51.011Z,51.90
2018-10-19T03:28:21.362Z,50.97
2018-10-19T03:30:49.758Z,51.07
2018-10-19T03:33:18.103Z,50.90
2018-10-19T03:35:46.310Z,45.00
2018-10-19T03:38:14.594Z,45.30
2018-10-19T03:40:42.885Z,48.00
2018-10-19T03:43:11.236Z,46.70
2018-10-19T03:45:39.541Z,58.00
2018-10-19T03:48:07.831Z,55.93
2018-10-19T03:50:36.150Z,56.67
2018-10-19T03:53:05.059Z,55.97
2018-10-19T03:55:33.462Z,55.17
2018-10-19T03:58:01.713Z,53.77
2018-10-19T04:00:29.998Z,62.00
2018-10-19T04:03:08.780Z,58.00
2018-10-19T04:05:37.056Z,58.77
2018-10-19T04:08:05.513Z,57.67
2018-10-19T04:10:33.822Z,58.33
2018-10-19T04:13:02.089Z,56.67
2018-10-19T04:15:30.407Z,58.77
2018-10-19T04:17:58.741Z,56.47
2018-10-19T04:20:30.920Z,53.67
2018-10-19T04:23:03.573Z,57.20
2018-10-19T04:25:31.837Z,53.93
2018-10-19T04:28:00.111Z,56.10
2018-10-19T04:30:28.436Z,54.23
2018-10-19T04:32:56.762Z,55.23
2018-10-19T04:35:25.139Z,57.63
2018-10-19T04:37:53.470Z,55.90
2018-10-19T04:40:22.992Z,52.87
2018-10-19T04:42:51.388Z,53.97
2018-10-19T04:45:20.048Z,53.80
2018-10-19T04:47:48.371Z,56.20
2018-10-19T04:50:16.693Z,54.57
2018-10-19T04:52:44.992Z,56.50
2018-10-19T04:55:19.373Z,56.80
2018-10-19T04:57:47.782Z,55.90
2018-10-19T05:00:17.886Z,53.20
2018-10-19T05:02:46.337Z,53.87
2018-10-19T05:05:14.649Z,56.20
2018-10-19T05:07:42.868Z,51.30
2018-10-19T05:10:11.405Z,56.57
2018-10-19T05:12:39.783Z,53.73
2018-10-19T05:15:09.214Z,54.57
2018-10-19T05:17:37.489Z,56.87
2018-10-19T05:20:07.600Z,54.77
2018-10-19T05:22:35.905Z,52.80
2018-10-19T05:25:05.097Z,51.23
2018-10-19T05:27:33.419Z,44.47
2018-10-19T05:30:01.710Z,46.60
2018-10-19T05:32:29.950Z,45.53
2018-10-19T05:34:58.338Z,45.57
2018-10-19T05:37:31.657Z,47.00
2018-10-19T05:40:00.488Z,51.37
2018-10-19T05:42:28.765Z,49.80
2018-10-19T05:44:57.071Z,52.63
2018-10-19T05:47:25.408Z,55.17
2018-10-19T05:49:54.082Z,55.37
2018-10-19T05:52:22.536Z,51.87
2018-10-19T05:54:50.891Z,54.60
2018-10-19T05:57:19.183Z,52.40
2018-10-19T05:59:47.518Z,51.17
2018-10-19T06:02:15.979Z,51.90
2018-10-19T06:04:44.286Z,55.70
2018-10-19T06:07:12.585Z,51.27
2018-10-19T06:09:40.932Z,51.87
2018-10-19T06:12:09.258Z,53.17
2018-10-19T06:14:37.621Z,50.10
2018-10-19T06:17:06.194Z,52.10
2018-10-19T06:19:34.423Z,52.47
2018-10-19T06:22:03.901Z,50.53
2018-10-19T06:24:32.243Z,46.10
2018-10-19T06:27:00.511Z,47.20
2018-10-19T06:29:28.827Z,50.27
2018-10-19T06:32:02.043Z,50.50
2018-10-19T06:34:33.289Z,52.50
2018-10-19T06:37:01.640Z,51.17
2018-10-19T06:39:29.896Z,48.73
2018-10-19T06:42:01.901Z,51.33
2018-10-19T06:44:30.247Z,49.50
2018-10-19T06:46:58.610Z,51.20
2018-10-19T06:49:26.787Z,48.90
2018-10-19T06:51:56.048Z,49.17
2018-10-19T06:54:24.316Z,46.17
2018-10-19T06:56:52.606Z,42.20
2018-10-19T06:59:20.991Z,45.13
2018-10-19T07:01:49.272Z,47.23
2018-10-19T07:04:17.591Z,46.90
2018-10-19T07:06:45.917Z,47.50
2018-10-19T07:09:14.222Z,46.50
2018-10-19T07:11:42.876Z,44.53
2018-10-19T07:14:11.273Z,45.37
2018-10-19T07:16:39.494Z,45.70
2018-10-19T07:19:07.865Z,41.00
2018-10-19T07:21:36.204Z,41.00
2018-10-19T07:24:04.683Z,45.40
2018-10-19T07:26:33.002Z,44.43
2018-10-19T07:29:01.379Z,42.97
2018-10-19T07:31:29.696Z,46.03
2018-10-19T07:33:58.010Z,43.73
2018-10-19T07:36:26.389Z,43.40
2018-10-19T07:38:54.629Z,43.47
2018-10-19T07:41:22.952Z,42.53
2018-10-19T07:43:51.290Z,42.93
2018-10-19T07:46:19.578Z,45.03
2018-10-19T07:48:47.859Z,46.53
2018-10-19T07:51:16.174Z,44.37
2018-10-19T07:53:44.474Z,47.10
2018-10-19T07:56:12.922Z,50.20
2018-10-19T07:58:41.202Z,52.57
2018-10-19T08:01:10.665Z,50.07
2018-10-19T08:03:39.910Z,52.70
2018-10-19T08:06:08.326Z,51.93
2018-10-19T08:08:38.675Z,54.10
2018-10-19T08:11:07.055Z,49.60
2018-10-19T08:13:35.351Z,51.83
2018-10-19T08:16:03.634Z,52.10
2018-10-19T08:18:31.966Z,53.03
2018-10-19T08:21:00.402Z,50.13
2018-10-19T08:23:28.719Z,51.77
2018-10-19T08:25:57.044Z,51.67
2018-10-19T08:28:25.301Z,54.03
2018-10-19T08:30:53.647Z,54.73
2018-10-19T08:33:22.005Z,55.00
2018-10-19T08:35:50.484Z,55.90
2018-10-19T08:38:18.809Z,59.20
2018-10-19T08:40:47.181Z,57.27
2018-10-19T08:43:15.592Z,57.03
2018-10-19T08:45:43.923Z,53.57
2018-10-19T08:48:12.265Z,54.23
2018-10-19T08:50:40.602Z,54.50
2018-10-19T08:53:08.996Z,54.00
2018-10-19T08:55:37.336Z,56.17
2018-10-19T08:58:05.794Z,58.93
2018-10-19T09:00:34.062Z,60.93
2018-10-19T09:03:03.112Z,56.30
2018-10-19T09:05:35.783Z,54.03
2018-10-19T09:08:04.168Z,53.53
2018-10-19T09:10:32.502Z,56.77
2018-10-19T09:13:00.835Z,54.70
2018-10-19T09:15:29.193Z,57.33
2018-10-19T09:17:57.523Z,58.03
2018-10-19T09:20:26.870Z,59.77
2018-10-19T09:22:55.226Z,56.67
2018-10-19T09:25:23.516Z,64.77
2018-10-19T09:27:51.892Z,64.90
2018-10-19T09:30:21.119Z,63.73
2018-10-19T09:32:49.426Z,60.43
2018-10-19T09:35:17.828Z,59.40
2018-10-19T09:37:46.027Z,60.20
2018-10-19T09:40:14.381Z,61.00
2018-10-19T09:42:42.612Z,60.70
2018-10-19T09:45:10.938Z,62.33
2018-10-19T09:47:39.350Z,61.33
2018-10-19T09:50:07.652Z,65.83
2018-10-19T09:52:35.932Z,66.13
2018-10-19T09:55:04.321Z,60.27
2018-10-19T09:57:36.489Z,64.07
2018-10-19T10:00:15.335Z,63.90
2018-10-19T10:02:43.791Z,59.30
2018-10-19T10:05:12.203Z,64.90
2018-10-19T10:07:40.582Z,66.37
2018-10-19T10:10:08.842Z,65.47
2018-10-19T10:12:37.207Z,63.97
2018-10-19T10:15:05.778Z,63.43
2018-10-19T10:17:34.078Z,63.17
2018-10-19T10:20:03.728Z,64.07
2018-10-19T10:22:32.017Z,65.07
2018-10-19T10:25:00.515Z,64.00
2018-10-19T10:27:28.621Z,64.60
2018-10-19T10:29:56.914Z,65.47
2018-10-19T10:32:25.245Z,63.70
2018-10-19T10:34:53.515Z,65.23
2018-10-19T10:37:21.790Z,61.90
2018-10-19T10:39:50.195Z,63.30
2018-10-19T10:42:18.511Z,61.73
2018-10-19T10:44:46.949Z,64.43
2018-10-19T10:47:16.176Z,62.13
2018-10-19T10:49:45.285Z,63.70
2018-10-19T10:52:13.653Z,61.53
2018-10-19T10:54:41.814Z,59.23
2018-10-19T10:57:10.065Z,58.93
2018-10-19T10:59:38.368Z,59.10
2018-10-19T11:02:06.725Z,59.63
2018-10-19T11:04:35.022Z,59.43
2018-10-19T11:07:03.412Z,59.77
2018-10-19T11:09:31.675Z,58.90
2018-10-19T11:11:59.967Z,55.27
2018-10-19T11:14:28.264Z,56.60
2018-10-19T11:16:56.575Z,58.07
2018-10-19T11:19:24.879Z,60.07
2018-10-19T11:21:53.132Z,59.20
2018-10-19T11:24:21.459Z,60.63
2018-10-19T11:26:49.885Z,62.20
2018-10-19T11:29:18.214Z,63.10
2018-10-19T11:31:46.602Z,64.57
2018-10-19T11:34:14.960Z,62.10
2018-10-19T11:36:43.250Z,56.73
2018-10-19T11:39:11.557Z,62.37
2018-10-19T11:41:40.216Z,61.30
2018-10-19T11:44:08.604Z,61.23
2018-10-19T11:46:36.944Z,58.90
2018-10-19T11:49:05.311Z,57.63
2018-10-19T11:51:33.718Z,57.93
2018-10-19T11:54:02.038Z,58.37
2018-10-19T11:56:30.338Z,56.90
2018-10-19T11:58:58.672Z,58.27
2018-10-19T12:01:26.992Z,56.60
2018-10-19T12:03:55.275Z,60.20
2018-10-19T12:06:23.616Z,57.97
2018-10-19T12:08:51.951Z,57.93
2018-10-19T12:11:20.288Z,57.03
2018-10-19T12:13:48.595Z,56.83
2018-10-19T12:16:16.976Z,56.73
2018-10-19T12:18:45.175Z,57.20
2018-10-19T12:21:13.551Z,57.97
2018-10-19T12:23:41.776Z,58.20
2018-10-19T12:26:10.272Z,58.23
2018-10-19T12:28:38.457Z,55.50
2018-10-19T12:31:06.842Z,58.70
2018-10-19T12:33:35.073Z,57.70
2018-10-19T12:36:03.458Z,57.43
2018-10-19T12:38:31.763Z,57.27
2018-10-19T12:41:00.131Z,57.17
2018-10-19T12:43:28.382Z,56.47
2018-10-19T12:46:41.027Z,53.80
2018-10-19T12:49:09.932Z,56.17
2018-10-19T12:51:38.537Z,53.80
2018-10-19T12:54:07.052Z,56.43
2018-10-19T12:56:35.342Z,55.53
2018-10-19T12:59:03.789Z,57.30
2018-10-19T13:01:32.573Z,56.37
2018-10-19T13:04:01.459Z,56.60
2018-10-19T13:06:29.770Z,54.80
2018-10-19T13:08:58.095Z,51.30
2018-10-19T13:11:26.828Z,54.67
2018-10-19T13:13:55.113Z,53.43
2018-10-19T13:16:23.654Z,52.73
2018-10-19T13:18:52.108Z,55.03
2018-10-19T13:21:20.546Z,58.77
2018-10-19T13:23:48.908Z,59.23
2018-10-19T13:26:17.277Z,59.67
2018-10-19T13:28:45.580Z,57.10
2018-10-19T13:31:13.886Z,55.47
2018-10-19T13:33:42.344Z,57.30
2018-10-19T13:36:10.878Z,56.53
2018-10-19T13:38:39.006Z,55.77
2018-10-19T13:41:07.363Z,53.57
2018-10-19T13:43:35.622Z,55.10
2018-10-19T13:46:04.229Z,52.90
2018-10-19T13:48:32.541Z,49.77
2018-10-19T13:51:00.980Z,53.37
2018-10-19T13:53:29.239Z,48.80
2018-10-19T13:55:57.700Z,47.33
2018-10-19T13:58:26.080Z,51.73
2018-10-19T14:00:54.342Z,53.07
2018-10-19T14:03:22.634Z,48.90
2018-10-19T14:05:50.926Z,53.60
2018-10-19T14:08:19.240Z,50.40
2018-10-19T14:10:47.593Z,52.20
2018-10-19T14:13:15.900Z,50.77
2018-10-19T14:15:44.245Z,50.23
2018-10-19T14:18:12.539Z,51.40
2018-10-19T14:20:40.891Z,51.67
2018-10-19T14:23:09.276Z,53.63
2018-10-19T14:25:37.453Z,50.73
2018-10-19T14:28:06.069Z,48.80
2018-10-19T14:30:34.416Z,50.80
2018-10-19T14:33:02.818Z,48.60
2018-10-19T14:35:31.060Z,51.60
2018-10-19T14:37:59.375Z,50.50
2018-10-19T14:40:27.721Z,48.03
2018-10-19T14:42:56.064Z,50.27
2018-10-19T14:45:24.374Z,49.63
2018-10-19T14:47:52.710Z,46.37
2018-10-19T14:50:20.967Z,48.00
2018-10-19T14:52:49.318Z,50.10
2018-10-19T14:55:19.413Z,50.47
2018-10-19T14:57:47.703Z,50.93
2018-10-19T15:00:17.687Z,50.23
2018-10-19T15:02:49.296Z,52.27
2018-10-19T15:05:18.693Z,47.30
2018-10-19T15:07:47.057Z,47.93
2018-10-19T15:10:17.210Z,51.17
2018-10-19T15:12:45.552Z,47.30
2018-10-19T15:15:15.769Z,51.30
2018-10-19T15:17:44.131Z,51.17
2018-10-19T15:20:12.911Z,50.53
2018-10-19T15:22:41.238Z,47.63
2018-10-19T15:25:09.998Z,48.20
2018-10-19T15:27:45.717Z,48.13
2018-10-19T15:30:15.779Z,48.67
2018-10-19T15:32:44.126Z,51.93
2018-10-19T15:35:13.494Z,50.47
2018-10-19T15:37:42.028Z,49.20
2018-10-19T15:40:11.144Z,47.67
2018-10-19T15:42:39.910Z,48.37
2018-10-19T15:45:10.059Z,49.50
2018-10-19T15:47:38.342Z,50.13
2018-10-19T15:50:07.566Z,51.63
2018-10-19T15:52:36.039Z,50.70
2018-10-19T15:55:04.662Z,52.70
2018-10-19T15:57:32.931Z,50.53
2018-10-19T16:00:01.301Z,49.23
2018-10-19T16:02:29.582Z,50.83
2018-10-19T16:04:57.922Z,49.57
2018-10-19T16:07:26.253Z,47.33
2018-10-19T16:09:54.601Z,51.13
2018-10-19T16:12:22.895Z,46.57
2018-10-19T16:14:51.336Z,51.53
2018-10-19T16:17:19.725Z,49.03
2018-10-19T16:19:51.592Z,49.97
2018-10-19T16:22:19.928Z,50.90
2018-10-19T16:24:50.292Z,49.07
2018-10-19T16:27:22.238Z,47.30
2018-10-19T16:29:50.534Z,48.57
2018-10-19T16:32:18.815Z,46.33
2018-10-19T16:34:47.160Z,45.60
2018-10-19T16:37:15.467Z,48.90
2018-10-19T16:39:43.849Z,49.90
2018-10-19T16:42:16.136Z,53.70
2018-10-19T16:44:44.459Z,49.57
2018-10-19T16:47:12.788Z,52.10
2018-10-19T16:49:42.327Z,49.23
2018-10-19T16:52:13.896Z,48.27
2018-10-19T16:54:45.800Z,50.90
2018-10-19T16:57:14.152Z,52.00
2018-10-19T16:59:44.492Z,48.20
2018-10-19T17:02:12.830Z,50.83
2018-10-19T17:04:41.352Z,50.43
2018-10-19T17:07:09.631Z,47.63
2018-10-19T17:09:41.399Z,48.57
2018-10-19T17:12:10.090Z,52.97
2018-10-19T17:14:38.300Z,50.03
2018-10-19T17:17:06.563Z,50.43
2018-10-19T17:19:34.891Z,51.20
2018-10-19T17:22:03.314Z,48.67
2018-10-19T17:24:31.608Z,54.87
2018-10-19T17:27:00.083Z,56.17
2018-10-19T17:29:28.375Z,59.10
2018-10-19T17:31:56.648Z,53.57
2018-10-19T17:34:24.946Z,55.10
2018-10-19T17:36:53.282Z,52.07
2018-10-19T17:39:21.665Z,52.50
2018-10-19T17:41:50.002Z,55.33
2018-10-19T17:44:18.397Z,51.00
2018-10-19T17:46:46.671Z,50.90
2018-10-19T17:49:15.113Z,50.90
2018-10-19T17:51:43.343Z,53.43
2018-10-19T17:54:13.774Z,52.27
2018-10-19T17:56:42.022Z,51.53
2018-10-19T17:59:13.852Z,54.00
2018-10-19T18:01:42.116Z,54.43
2018-10-19T18:04:10.413Z,55.67
2018-10-19T18:06:38.746Z,56.80
2018-10-19T18:09:09.120Z,55.90
2018-10-19T18:11:37.560Z,59.10
2018-10-19T18:14:05.936Z,58.87
2018-10-19T18:16:34.374Z,54.43
2018-10-19T18:19:02.693Z,55.67
2018-10-19T18:21:31.149Z,55.20
2018-10-19T18:23:59.353Z,51.10
2018-10-19T18:26:27.702Z,50.30
2018-10-19T18:28:56.050Z,53.93
2018-10-19T18:31:24.394Z,52.13
2018-10-19T18:33:52.728Z,56.33
2018-10-19T18:36:21.025Z,53.90
2018-10-19T18:38:49.304Z,53.47
2018-10-19T18:41:17.632Z,54.13
2018-10-19T18:43:45.953Z,53.77
2018-10-19T18:46:14.259Z,58.90
2018-10-19T18:48:42.502Z,60.27
2018-10-19T18:51:10.845Z,62.03
2018-10-19T18:53:39.162Z,63.37
2018-10-19T18:56:08.599Z,64.07
2018-10-19T18:58:36.924Z,60.53
2018-10-19T19:01:05.274Z,60.30
2018-10-19T19:03:33.631Z,61.47
2018-10-19T19:06:01.948Z,60.73
2018-10-19T19:08:30.238Z,62.90
2018-10-19T19:10:58.596Z,57.23
2018-10-19T19:13:29.252Z,60.03
2018-10-19T19:15:57.962Z,57.47
2018-10-19T19:18:26.308Z,58.63
2018-10-19T19:20:54.679Z,60.10
2018-10-19T19:23:23.022Z,63.13
2018-10-19T19:25:56.789Z,64.87
2018-10-19T19:28:25.081Z,65.60
2018-10-19T19:30:53.411Z,60.90
2018-10-19T19:33:27.021Z,60.27
2018-10-19T19:35:55.298Z,59.60
2018-10-19T19:38:23.662Z,64.67
2018-10-19T19:40:57.393Z,60.33
2018-10-19T19:43:25.673Z,61.50
2018-10-19T19:45:53.972Z,57.67
2018-10-19T19:48:27.616Z,61.23
2018-10-19T19:50:55.936Z,64.00
2018-10-19T19:53:24.210Z,61.13
2018-10-19T19:55:52.500Z,64.23
2018-10-19T19:58:20.777Z,67.83
2018-10-19T20:00:49.110Z,66.40
2018-10-19T20:03:17.473Z,64.60
2018-10-19T20:05:45.886Z,66.37
2018-10-19T20:08:14.265Z,65.97
2018-10-19T20:10:42.544Z,65.27
2018-10-19T20:13:10.910Z,66.20
2018-10-19T20:15:42.815Z,62.80
2018-10-19T20:18:11.188Z,62.50
2018-10-19T20:20:39.499Z,75.83
2018-10-19T20:23:07.906Z,67.27
2018-10-19T20:25:36.269Z,71.37
2018-10-19T20:28:04.895Z,65.00
2018-10-19T20:30:33.213Z,62.93
2018-10-19T20:33:04.961Z,69.60
2018-10-19T20:35:33.252Z,72.67
2018-10-19T20:38:01.679Z,79.97
2018-10-19T20:40:29.870Z,72.97
2018-10-19T20:42:58.205Z,66.47
2018-10-19T20:45:27.575Z,88.83
2018-10-19T20:47:55.932Z,79.33
2018-10-19T20:50:24.226Z,83.20
2018-10-19T20:52:52.578Z,74.53
2018-10-19T20:55:20.846Z,75.20
2018-10-19T20:57:49.184Z,68.57
2018-10-19T21:00:18.554Z,67.10
2018-10-19T21:02:46.873Z,79.33
2018-10-19T21:05:15.230Z,78.77
2018-10-19T21:07:43.555Z,83.33
2018-10-19T21:10:13.220Z,81.10
2018-10-19T21:12:41.548Z,79.30
2018-10-19T21:15:11.496Z,78.43
2018-10-19T21:17:40.203Z,78.53
2018-10-19T21:20:09.481Z,93.53
2018-10-19T21:22:38.100Z,90.63
2018-10-19T21:25:07.587Z,90.60
2018-10-19T21:27:36.186Z,81.83
2018-10-19T21:30:04.946Z,85.00
2018-10-19T21:32:33.203Z,78.43
2018-10-19T21:35:01.524Z,76.70
2018-10-19T21:37:29.808Z,77.17
2018-10-19T21:39:58.147Z,78.37
2018-10-19T21:42:26.415Z,91.87
2018-10-19T21:44:54.882Z,94.90
2018-10-19T21:47:23.125Z,93.17
2018-10-19T21:49:51.429Z,92.17
2018-10-19T21:52:19.974Z,80.80
2018-10-19T21:54:48.306Z,86.00
2018-10-19T21:57:16.654Z,89.63
2018-10-19T21:59:44.973Z,84.90
2018-10-19T22:02:13.364Z,91.07
2018-10-19T22:04:41.625Z,85.47
2018-10-19T22:07:09.963Z,81.27
2018-10-19T22:09:39.299Z,88.67
2018-10-19T22:12:07.597Z,89.87
2018-10-19T22:14:35.886Z,84.00
2018-10-19T22:17:04.533Z,96.03
2018-10-19T22:19:32.798Z,93.73
2018-10-19T22:22:01.093Z,84.27
2018-10-19T22:24:29.394Z,77.00
2018-10-19T22:26:57.677Z,88.43
2018-10-19T22:29:25.978Z,85.37
2018-10-19T22:31:54.282Z,80.10
2018-10-19T22:34:22.682Z,78.27
2018-10-19T22:36:51.025Z,80.63
2018-10-19T22:39:19.358Z,82.50
2018-10-19T22:41:47.624Z,78.17
2018-10-19T22:44:15.955Z,78.23
2018-10-19T22:46:44.260Z,77.27
2018-10-19T22:49:12.588Z,76.87
2018-10-19T22:51:40.890Z,79.73
2018-10-19T22:54:09.192Z,80.67
2018-10-19T22:56:37.539Z,82.80
2018-10-19T22:59:06.018Z,81.90
2018-10-19T23:01:34.330Z,81.37
2018-10-19T23:04:02.662Z,85.63
2018-10-19T23:06:30.950Z,81.03
2018-10-19T23:08:59.218Z,85.40
2018-10-19T23:11:27.513Z,79.60
2018-10-19T23:13:55.861Z,82.13
2018-10-19T23:16:24.164Z,84.97
2018-10-19T23:18:52.515Z,84.50
2018-10-19T23:21:20.869Z,86.00
2018-10-19T23:23:49.178Z,85.37
2018-10-19T23:26:17.533Z,86.63
2018-10-19T23:28:45.841Z,84.47
2018-10-19T23:31:14.272Z,81.90
2018-10-19T23:33:42.520Z,85.80
2018-10-19T23:36:10.795Z,85.23
2018-10-19T23:38:39.114Z,87.70
2018-10-19T23:41:07.564Z,92.77
2018-10-19T23:43:35.824Z,88.37
2018-10-19T23:46:04.085Z,86.87
2018-10-19T23:48:32.420Z,91.60
2018-10-19T23:51:01.078Z,96.37
2018-10-19T23:53:29.384Z,94.40
2018-10-19T23:55:57.710Z,102.33
2018-10-19T23:58:25.947Z,96.00
